sensor_id;sensor_type;location;lat;lon;timestamp;P1;durP1;ratioP1;P2;durP2;ratioP2
39176;SDS011;24904;52.208;21.192;2024-02-21T00:02:27;11.40;;;3.50;;
39176;SDS011;24904;52.208;21.192;2024-02-21T00:07:32;13.00;;;4.20;;
39176;SDS011;24904;52.208;21.192;2024-02-21T00:12:37;14.50;;;4.80;;
39176;SDS011;24904;52.208;21.192;2024-02-21T00:17:43;13.10;;;4.80;;
39176;SDS011;24904;52.208;21.192;2024-02-21T00:22:48;14.10;;;4.00;;
39176;SDS011;24904;52.208;21.192;2024-02-21T00:27:53;11.00;;;4.20;;
39176;SDS011;24904;52.208;21.192;2024-02-21T00:32:58;14.40;;;4.90;;
39176;SDS011;24904;52.208;21.192;2024-02-21T00:38:03;18.50;;;4.80;;
39176;SDS011;24904;52.208;21.192;2024-02-21T00:43:08;14.30;;;3.90;;
39176;SDS011;24904;52.208;21.192;2024-02-21T00:48:13;14.00;;;4.80;;
39176;SDS011;24904;52.208;21.192;2024-02-21T00:53:18;17.50;;;4.60;;
39176;SDS011;24904;52.208;21.192;2024-02-21T00:58:23;12.40;;;4.50;;
39176;SDS011;24904;52.208;21.192;2024-02-21T01:03:28;13.80;;;4.80;;
39176;SDS011;24904;52.208;21.192;2024-02-21T01:08:33;11.80;;;4.40;;
39176;SDS011;24904;52.208;21.192;2024-02-21T01:13:38;18.90;;;5.10;;
39176;SDS011;24904;52.208;21.192;2024-02-21T01:18:43;15.00;;;4.80;;
39176;SDS011;24904;52.208;21.192;2024-02-21T01:23:48;15.70;;;5.50;;
39176;SDS011;24904;52.208;21.192;2024-02-21T01:28:53;15.30;;;5.30;;
39176;SDS011;24904;52.208;21.192;2024-02-21T01:33:58;19.80;;;5.40;;
39176;SDS011;24904;52.208;21.192;2024-02-21T01:39:04;19.90;;;5.70;;
39176;SDS011;24904;52.208;21.192;2024-02-21T01:44:09;14.90;;;6.40;;
39176;SDS011;24904;52.208;21.192;2024-02-21T01:49:14;20.20;;;7.50;;
39176;SDS011;24904;52.208;21.192;2024-02-21T01:54:19;17.80;;;6.20;;
39176;SDS011;24904;52.208;21.192;2024-02-21T01:59:24;14.40;;;5.20;;
39176;SDS011;24904;52.208;21.192;2024-02-21T02:04:30;18.40;;;5.70;;
39176;SDS011;24904;52.208;21.192;2024-02-21T02:09:36;13.70;;;5.00;;
39176;SDS011;24904;52.208;21.192;2024-02-21T02:14:41;17.10;;;6.80;;
39176;SDS011;24904;52.208;21.192;2024-02-21T02:19:46;17.90;;;6.70;;
39176;SDS011;24904;52.208;21.192;2024-02-21T02:24:51;18.90;;;6.20;;
39176;SDS011;24904;52.208;21.192;2024-02-21T02:29:56;13.30;;;5.90;;
39176;SDS011;24904;52.208;21.192;2024-02-21T02:35:01;14.90;;;6.70;;
39176;SDS011;24904;52.208;21.192;2024-02-21T02:40:08;16.30;;;7.40;;
39176;SDS011;24904;52.208;21.192;2024-02-21T02:45:14;17.40;;;7.90;;
39176;SDS011;24904;52.208;21.192;2024-02-21T02:50:19;13.80;;;7.30;;
39176;SDS011;24904;52.208;21.192;2024-02-21T02:55:24;23.60;;;8.60;;
39176;SDS011;24904;52.208;21.192;2024-02-21T03:00:29;16.40;;;8.80;;
39176;SDS011;24904;52.208;21.192;2024-02-21T03:05:37;17.10;;;8.40;;
39176;SDS011;24904;52.208;21.192;2024-02-21T03:10:43;21.30;;;9.00;;
39176;SDS011;24904;52.208;21.192;2024-02-21T03:15:48;19.20;;;8.30;;
39176;SDS011;24904;52.208;21.192;2024-02-21T03:20:53;19.70;;;8.90;;
39176;SDS011;24904;52.208;21.192;2024-02-21T03:25:58;23.60;;;9.30;;
39176;SDS011;24904;52.208;21.192;2024-02-21T03:31:03;21.30;;;8.50;;
39176;SDS011;24904;52.208;21.192;2024-02-21T03:36:08;26.60;;;9.00;;
39176;SDS011;24904;52.208;21.192;2024-02-21T03:41:18;18.50;;;8.50;;
39176;SDS011;24904;52.208;21.192;2024-02-21T03:46:23;15.80;;;7.70;;
39176;SDS011;24904;52.208;21.192;2024-02-21T03:51:28;15.90;;;8.10;;
39176;SDS011;24904;52.208;21.192;2024-02-21T03:56:36;22.80;;;8.00;;
39176;SDS011;24904;52.208;21.192;2024-02-21T04:01:42;17.20;;;7.60;;
39176;SDS011;24904;52.208;21.192;2024-02-21T04:06:48;19.70;;;7.30;;
39176;SDS011;24904;52.208;21.192;2024-02-21T04:11:53;17.20;;;7.70;;
39176;SDS011;24904;52.208;21.192;2024-02-21T04:16:58;16.00;;;8.20;;
39176;SDS011;24904;52.208;21.192;2024-02-21T04:22:03;22.10;;;8.70;;
39176;SDS011;24904;52.208;21.192;2024-02-21T04:27:09;12.00;;;7.10;;
39176;SDS011;24904;52.208;21.192;2024-02-21T04:32:14;13.20;;;8.00;;
39176;SDS011;24904;52.208;21.192;2024-02-21T04:37:19;20.70;;;8.10;;
39176;SDS011;24904;52.208;21.192;2024-02-21T04:42:25;15.70;;;7.90;;
39176;SDS011;24904;52.208;21.192;2024-02-21T04:47:30;18.00;;;7.40;;
39176;SDS011;24904;52.208;21.192;2024-02-21T04:52:36;19.70;;;7.50;;
39176;SDS011;24904;52.208;21.192;2024-02-21T04:57:41;14.90;;;7.40;;
39176;SDS011;24904;52.208;21.192;2024-02-21T05:02:46;16.90;;;8.30;;
39176;SDS011;24904;52.208;21.192;2024-02-21T05:07:51;19.00;;;7.80;;
39176;SDS011;24904;52.208;21.192;2024-02-21T05:12:56;18.40;;;8.10;;
39176;SDS011;24904;52.208;21.192;2024-02-21T05:18:02;14.50;;;7.60;;
39176;SDS011;24904;52.208;21.192;2024-02-21T05:23:08;18.90;;;9.60;;
39176;SDS011;24904;52.208;21.192;2024-02-21T05:28:13;23.00;;;9.00;;
39176;SDS011;24904;52.208;21.192;2024-02-21T05:33:18;16.90;;;8.40;;
39176;SDS011;24904;52.208;21.192;2024-02-21T05:38:24;21.10;;;9.60;;
39176;SDS011;24904;52.208;21.192;2024-02-21T05:43:29;17.90;;;8.70;;
39176;SDS011;24904;52.208;21.192;2024-02-21T05:48:34;18.00;;;9.40;;
39176;SDS011;24904;52.208;21.192;2024-02-21T05:53:39;22.30;;;9.00;;
39176;SDS011;24904;52.208;21.192;2024-02-21T05:58:45;16.20;;;8.10;;
39176;SDS011;24904;52.208;21.192;2024-02-21T06:03:50;16.90;;;7.60;;
39176;SDS011;24904;52.208;21.192;2024-02-21T06:08:55;20.80;;;9.20;;
39176;SDS011;24904;52.208;21.192;2024-02-21T06:14:00;23.10;;;8.60;;
39176;SDS011;24904;52.208;21.192;2024-02-21T06:19:05;15.20;;;8.10;;
39176;SDS011;24904;52.208;21.192;2024-02-21T06:24:10;16.60;;;8.20;;
39176;SDS011;24904;52.208;21.192;2024-02-21T06:29:16;14.90;;;7.90;;
39176;SDS011;24904;52.208;21.192;2024-02-21T06:34:21;18.50;;;7.80;;
39176;SDS011;24904;52.208;21.192;2024-02-21T06:39:26;21.60;;;9.10;;
39176;SDS011;24904;52.208;21.192;2024-02-21T06:44:31;21.70;;;9.00;;
39176;SDS011;24904;52.208;21.192;2024-02-21T06:49:42;21.60;;;9.30;;
39176;SDS011;24904;52.208;21.192;2024-02-21T06:54:51;15.40;;;8.70;;
39176;SDS011;24904;52.208;21.192;2024-02-21T06:59:56;21.70;;;9.60;;
39176;SDS011;24904;52.208;21.192;2024-02-21T07:05:01;21.10;;;10.10;;
39176;SDS011;24904;52.208;21.192;2024-02-21T07:10:07;22.90;;;10.80;;
39176;SDS011;24904;52.208;21.192;2024-02-21T07:15:13;24.50;;;10.40;;
39176;SDS011;24904;52.208;21.192;2024-02-21T07:20:18;23.20;;;10.50;;
39176;SDS011;24904;52.208;21.192;2024-02-21T07:25:23;22.90;;;11.40;;
39176;SDS011;24904;52.208;21.192;2024-02-21T07:30:28;24.80;;;12.90;;
39176;SDS011;24904;52.208;21.192;2024-02-21T07:35:33;23.10;;;11.90;;
39176;SDS011;24904;52.208;21.192;2024-02-21T07:40:39;24.90;;;11.70;;
39176;SDS011;24904;52.208;21.192;2024-02-21T07:45:44;28.60;;;12.80;;
39176;SDS011;24904;52.208;21.192;2024-02-21T07:50:50;28.30;;;13.90;;
39176;SDS011;24904;52.208;21.192;2024-02-21T07:55:55;24.90;;;12.80;;
39176;SDS011;24904;52.208;21.192;2024-02-21T08:01:00;33.90;;;12.80;;
39176;SDS011;24904;52.208;21.192;2024-02-21T08:06:06;29.40;;;13.90;;
39176;SDS011;24904;52.208;21.192;2024-02-21T08:11:16;37.90;;;16.00;;
39176;SDS011;24904;52.208;21.192;2024-02-21T08:16:21;32.20;;;14.50;;
39176;SDS011;24904;52.208;21.192;2024-02-21T08:21:27;34.40;;;14.70;;
39176;SDS011;24904;52.208;21.192;2024-02-21T08:26:32;28.70;;;13.20;;
39176;SDS011;24904;52.208;21.192;2024-02-21T08:31:37;40.40;;;15.40;;
39176;SDS011;24904;52.208;21.192;2024-02-21T08:36:43;39.70;;;15.20;;
39176;SDS011;24904;52.208;21.192;2024-02-21T08:41:48;36.80;;;15.30;;
39176;SDS011;24904;52.208;21.192;2024-02-21T08:46:53;34.90;;;15.20;;
39176;SDS011;24904;52.208;21.192;2024-02-21T08:51:59;38.30;;;15.30;;
39176;SDS011;24904;52.208;21.192;2024-02-21T08:57:04;28.60;;;13.40;;
39176;SDS011;24904;52.208;21.192;2024-02-21T09:02:09;27.60;;;13.80;;
39176;SDS011;24904;52.208;21.192;2024-02-21T09:07:14;30.20;;;12.90;;
39176;SDS011;24904;52.208;21.192;2024-02-21T09:12:19;27.20;;;13.40;;
39176;SDS011;24904;52.208;21.192;2024-02-21T09:17:25;33.30;;;12.80;;
39176;SDS011;24904;52.208;21.192;2024-02-21T09:22:31;29.60;;;13.10;;
39176;SDS011;24904;52.208;21.192;2024-02-21T09:27:37;28.70;;;11.50;;
39176;SDS011;24904;52.208;21.192;2024-02-21T09:32:42;25.00;;;11.80;;
39176;SDS011;24904;52.208;21.192;2024-02-21T09:37:47;28.20;;;10.80;;
39176;SDS011;24904;52.208;21.192;2024-02-21T09:42:53;28.70;;;12.00;;
39176;SDS011;24904;52.208;21.192;2024-02-21T09:48:14;32.20;;;11.20;;
39176;SDS011;24904;52.208;21.192;2024-02-21T09:53:29;24.00;;;10.80;;
39176;SDS011;24904;52.208;21.192;2024-02-21T09:58:35;31.60;;;10.90;;
39176;SDS011;24904;52.208;21.192;2024-02-21T10:03:43;36.80;;;10.40;;
39176;SDS011;24904;52.208;21.192;2024-02-21T10:08:52;30.70;;;9.60;;
39176;SDS011;24904;52.208;21.192;2024-02-21T10:14:04;27.50;;;9.20;;
39176;SDS011;24904;52.208;21.192;2024-02-21T10:19:17;24.80;;;8.80;;
39176;SDS011;24904;52.208;21.192;2024-02-21T10:24:27;21.80;;;8.10;;
39176;SDS011;24904;52.208;21.192;2024-02-21T10:29:32;19.10;;;7.00;;
39176;SDS011;24904;52.208;21.192;2024-02-21T10:34:38;20.30;;;8.20;;
39176;SDS011;24904;52.208;21.192;2024-02-21T10:39:45;24.90;;;7.50;;
39176;SDS011;24904;52.208;21.192;2024-02-21T10:44:50;19.80;;;7.50;;
39176;SDS011;24904;52.208;21.192;2024-02-21T10:49:57;22.20;;;8.30;;
39176;SDS011;24904;52.208;21.192;2024-02-21T11:00:13;23.60;;;7.90;;
39176;SDS011;24904;52.208;21.192;2024-02-21T11:05:20;23.60;;;8.90;;
39176;SDS011;24904;52.208;21.192;2024-02-21T11:10:26;26.50;;;7.70;;
39176;SDS011;24904;52.208;21.192;2024-02-21T11:15:31;21.40;;;8.80;;
39176;SDS011;24904;52.208;21.192;2024-02-21T11:20:37;27.40;;;9.60;;
39176;SDS011;24904;52.208;21.192;2024-02-21T11:25:43;29.80;;;10.50;;
39176;SDS011;24904;52.208;21.192;2024-02-21T11:30:48;32.30;;;10.30;;
39176;SDS011;24904;52.208;21.192;2024-02-21T11:35:53;23.60;;;10.60;;
39176;SDS011;24904;52.208;21.192;2024-02-21T11:40:58;22.00;;;10.50;;
39176;SDS011;24904;52.208;21.192;2024-02-21T11:46:03;27.70;;;12.00;;
39176;SDS011;24904;52.208;21.192;2024-02-21T11:51:09;26.20;;;11.30;;
39176;SDS011;24904;52.208;21.192;2024-02-21T11:56:24;26.10;;;13.00;;
39176;SDS011;24904;52.208;21.192;2024-02-21T12:01:30;31.00;;;11.30;;
39176;SDS011;24904;52.208;21.192;2024-02-21T12:06:35;26.90;;;11.90;;
39176;SDS011;24904;52.208;21.192;2024-02-21T12:11:41;25.30;;;12.40;;
39176;SDS011;24904;52.208;21.192;2024-02-21T12:16:47;32.90;;;12.80;;
39176;SDS011;24904;52.208;21.192;2024-02-21T12:21:53;31.50;;;13.60;;
39176;SDS011;24904;52.208;21.192;2024-02-21T12:27:00;28.40;;;12.70;;
39176;SDS011;24904;52.208;21.192;2024-02-21T12:32:05;34.40;;;14.20;;
39176;SDS011;24904;52.208;21.192;2024-02-21T12:37:11;27.20;;;13.20;;
39176;SDS011;24904;52.208;21.192;2024-02-21T12:42:17;35.50;;;14.80;;
39176;SDS011;24904;52.208;21.192;2024-02-21T12:47:22;33.10;;;14.40;;
39176;SDS011;24904;52.208;21.192;2024-02-21T12:52:28;30.00;;;13.70;;
39176;SDS011;24904;52.208;21.192;2024-02-21T12:57:33;35.40;;;14.00;;
39176;SDS011;24904;52.208;21.192;2024-02-21T13:02:39;29.80;;;13.60;;
39176;SDS011;24904;52.208;21.192;2024-02-21T13:07:44;33.60;;;13.90;;
39176;SDS011;24904;52.208;21.192;2024-02-21T13:12:50;31.20;;;14.00;;
39176;SDS011;24904;52.208;21.192;2024-02-21T13:17:55;36.90;;;14.90;;
39176;SDS011;24904;52.208;21.192;2024-02-21T13:23:01;31.60;;;15.10;;
39176;SDS011;24904;52.208;21.192;2024-02-21T13:28:07;29.30;;;14.50;;
39176;SDS011;24904;52.208;21.192;2024-02-21T13:33:12;33.70;;;14.70;;
39176;SDS011;24904;52.208;21.192;2024-02-21T13:38:17;29.70;;;13.80;;
39176;SDS011;24904;52.208;21.192;2024-02-21T13:43:23;22.40;;;12.40;;
39176;SDS011;24904;52.208;21.192;2024-02-21T13:48:28;26.70;;;13.30;;
39176;SDS011;24904;52.208;21.192;2024-02-21T13:53:35;33.00;;;13.40;;
39176;SDS011;24904;52.208;21.192;2024-02-21T13:58:40;27.50;;;13.30;;
39176;SDS011;24904;52.208;21.192;2024-02-21T14:03:45;27.70;;;12.90;;
39176;SDS011;24904;52.208;21.192;2024-02-21T14:08:50;26.50;;;12.40;;
39176;SDS011;24904;52.208;21.192;2024-02-21T14:13:55;27.40;;;12.50;;
39176;SDS011;24904;52.208;21.192;2024-02-21T14:19:00;23.10;;;12.50;;
39176;SDS011;24904;52.208;21.192;2024-02-21T14:24:06;30.20;;;13.20;;
39176;SDS011;24904;52.208;21.192;2024-02-21T14:29:12;30.20;;;12.30;;
39176;SDS011;24904;52.208;21.192;2024-02-21T14:34:17;23.40;;;11.80;;
39176;SDS011;24904;52.208;21.192;2024-02-21T14:39:22;20.40;;;11.50;;
39176;SDS011;24904;52.208;21.192;2024-02-21T14:44:27;23.20;;;12.30;;
39176;SDS011;24904;52.208;21.192;2024-02-21T14:49:32;29.40;;;11.90;;
39176;SDS011;24904;52.208;21.192;2024-02-21T14:54:39;26.00;;;11.10;;
39176;SDS011;24904;52.208;21.192;2024-02-21T14:59:48;24.10;;;11.20;;
39176;SDS011;24904;52.208;21.192;2024-02-21T15:04:57;24.10;;;11.30;;
39176;SDS011;24904;52.208;21.192;2024-02-21T15:10:03;22.90;;;11.20;;
39176;SDS011;24904;52.208;21.192;2024-02-21T15:15:10;19.30;;;9.60;;
39176;SDS011;24904;52.208;21.192;2024-02-21T15:20:16;27.60;;;10.30;;
39176;SDS011;24904;52.208;21.192;2024-02-21T15:25:21;23.00;;;10.00;;
39176;SDS011;24904;52.208;21.192;2024-02-21T15:30:27;23.10;;;10.40;;
39176;SDS011;24904;52.208;21.192;2024-02-21T15:35:33;25.20;;;9.50;;
39176;SDS011;24904;52.208;21.192;2024-02-21T15:40:38;20.20;;;10.30;;
39176;SDS011;24904;52.208;21.192;2024-02-21T15:45:43;20.20;;;9.70;;
39176;SDS011;24904;52.208;21.192;2024-02-21T15:50:48;26.80;;;10.10;;
39176;SDS011;24904;52.208;21.192;2024-02-21T15:55:54;23.30;;;10.40;;
39176;SDS011;24904;52.208;21.192;2024-02-21T16:00:59;22.50;;;9.70;;
39176;SDS011;24904;52.208;21.192;2024-02-21T16:06:05;21.60;;;10.20;;
39176;SDS011;24904;52.208;21.192;2024-02-21T16:11:13;23.70;;;10.70;;
39176;SDS011;24904;52.208;21.192;2024-02-21T16:16:18;20.80;;;9.10;;
39176;SDS011;24904;52.208;21.192;2024-02-21T16:21:24;24.60;;;10.00;;
39176;SDS011;24904;52.208;21.192;2024-02-21T16:26:29;23.40;;;9.20;;
39176;SDS011;24904;52.208;21.192;2024-02-21T16:31:36;23.70;;;10.30;;
39176;SDS011;24904;52.208;21.192;2024-02-21T16:36:42;21.10;;;8.90;;
39176;SDS011;24904;52.208;21.192;2024-02-21T16:41:48;19.60;;;9.50;;
39176;SDS011;24904;52.208;21.192;2024-02-21T16:46:55;23.80;;;9.70;;
39176;SDS011;24904;52.208;21.192;2024-02-21T16:52:01;24.20;;;9.30;;
39176;SDS011;24904;52.208;21.192;2024-02-21T16:57:06;23.20;;;9.30;;
39176;SDS011;24904;52.208;21.192;2024-02-21T17:02:12;17.70;;;9.10;;
39176;SDS011;24904;52.208;21.192;2024-02-21T17:12:21;19.80;;;9.10;;
39176;SDS011;24904;52.208;21.192;2024-02-21T17:17:24;18.80;;;8.30;;
39176;SDS011;24904;52.208;21.192;2024-02-21T17:22:27;20.60;;;8.60;;
39176;SDS011;24904;52.208;21.192;2024-02-21T17:27:30;20.20;;;8.60;;
39176;SDS011;24904;52.208;21.192;2024-02-21T17:32:34;26.30;;;10.60;;
39176;SDS011;24904;52.208;21.192;2024-02-21T17:37:37;17.80;;;8.00;;
39176;SDS011;24904;52.208;21.192;2024-02-21T17:42:42;16.40;;;8.80;;
39176;SDS011;24904;52.208;21.192;2024-02-21T17:47:50;18.50;;;8.50;;
39176;SDS011;24904;52.208;21.192;2024-02-21T17:52:54;20.50;;;9.20;;
39176;SDS011;24904;52.208;21.192;2024-02-21T17:57:58;14.90;;;7.60;;
39176;SDS011;24904;52.208;21.192;2024-02-21T18:03:01;20.90;;;9.00;;
39176;SDS011;24904;52.208;21.192;2024-02-21T18:08:08;19.60;;;9.10;;
39176;SDS011;24904;52.208;21.192;2024-02-21T18:13:10;15.90;;;8.20;;
39176;SDS011;24904;52.208;21.192;2024-02-21T18:18:14;20.60;;;8.50;;
39176;SDS011;24904;52.208;21.192;2024-02-21T18:23:17;16.50;;;9.10;;
39176;SDS011;24904;52.208;21.192;2024-02-21T18:28:20;34.30;;;9.90;;
39176;SDS011;24904;52.208;21.192;2024-02-21T18:33:23;20.10;;;9.50;;
39176;SDS011;24904;52.208;21.192;2024-02-21T18:38:26;24.00;;;9.60;;
39176;SDS011;24904;52.208;21.192;2024-02-21T18:43:30;25.40;;;10.10;;
39176;SDS011;24904;52.208;21.192;2024-02-21T18:48:33;22.40;;;9.60;;
39176;SDS011;24904;52.208;21.192;2024-02-21T18:53:36;20.90;;;9.00;;
39176;SDS011;24904;52.208;21.192;2024-02-21T18:58:39;24.40;;;9.70;;
39176;SDS011;24904;52.208;21.192;2024-02-21T19:03:42;18.90;;;10.90;;
39176;SDS011;24904;52.208;21.192;2024-02-21T19:08:45;16.60;;;10.40;;
39176;SDS011;24904;52.208;21.192;2024-02-21T19:13:48;21.00;;;9.80;;
39176;SDS011;24904;52.208;21.192;2024-02-21T19:18:51;16.70;;;10.00;;
39176;SDS011;24904;52.208;21.192;2024-02-21T19:23:55;18.90;;;10.10;;
39176;SDS011;24904;52.208;21.192;2024-02-21T19:28:58;22.40;;;11.80;;
39176;SDS011;24904;52.208;21.192;2024-02-21T19:34:01;19.90;;;11.50;;
39176;SDS011;24904;52.208;21.192;2024-02-21T19:39:05;20.80;;;11.00;;
39176;SDS011;24904;52.208;21.192;2024-02-21T19:44:10;20.20;;;11.20;;
39176;SDS011;24904;52.208;21.192;2024-02-21T19:49:13;21.20;;;11.70;;
39176;SDS011;24904;52.208;21.192;2024-02-21T19:54:16;22.00;;;11.20;;
39176;SDS011;24904;52.208;21.192;2024-02-21T19:59:20;20.40;;;11.50;;
39176;SDS011;24904;52.208;21.192;2024-02-21T20:04:23;21.60;;;12.80;;
39176;SDS011;24904;52.208;21.192;2024-02-21T20:09:26;20.00;;;11.60;;
39176;SDS011;24904;52.208;21.192;2024-02-21T20:14:29;22.80;;;12.30;;
39176;SDS011;24904;52.208;21.192;2024-02-21T20:19:32;24.10;;;12.80;;
39176;SDS011;24904;52.208;21.192;2024-02-21T20:24:35;24.40;;;13.00;;
39176;SDS011;24904;52.208;21.192;2024-02-21T20:29:38;21.50;;;12.40;;
39176;SDS011;24904;52.208;21.192;2024-02-21T20:34:42;22.20;;;13.00;;
39176;SDS011;24904;52.208;21.192;2024-02-21T20:39:45;24.00;;;14.10;;
39176;SDS011;24904;52.208;21.192;2024-02-21T20:44:48;21.80;;;12.60;;
39176;SDS011;24904;52.208;21.192;2024-02-21T20:49:51;21.80;;;13.20;;
39176;SDS011;24904;52.208;21.192;2024-02-21T20:54:57;22.00;;;13.10;;
39176;SDS011;24904;52.208;21.192;2024-02-21T21:00:00;23.60;;;13.10;;
39176;SDS011;24904;52.208;21.192;2024-02-21T21:05:05;30.80;;;14.50;;
39176;SDS011;24904;52.208;21.192;2024-02-21T21:10:09;30.30;;;14.70;;
39176;SDS011;24904;52.208;21.192;2024-02-21T21:15:13;28.90;;;14.40;;
39176;SDS011;24904;52.208;21.192;2024-02-21T21:20:16;27.90;;;13.90;;
39176;SDS011;24904;52.208;21.192;2024-02-21T21:25:20;23.50;;;14.40;;
39176;SDS011;24904;52.208;21.192;2024-02-21T21:30:23;23.40;;;14.30;;
39176;SDS011;24904;52.208;21.192;2024-02-21T21:35:26;27.10;;;14.50;;
39176;SDS011;24904;52.208;21.192;2024-02-21T21:40:29;27.90;;;15.40;;
39176;SDS011;24904;52.208;21.192;2024-02-21T21:45:33;25.20;;;14.30;;
39176;SDS011;24904;52.208;21.192;2024-02-21T21:50:37;25.60;;;14.40;;
39176;SDS011;24904;52.208;21.192;2024-02-21T21:55:40;28.80;;;13.50;;
39176;SDS011;24904;52.208;21.192;2024-02-21T22:00:43;25.90;;;13.10;;
39176;SDS011;24904;52.208;21.192;2024-02-21T22:05:48;31.70;;;13.90;;
39176;SDS011;24904;52.208;21.192;2024-02-21T22:10:51;25.70;;;13.70;;
39176;SDS011;24904;52.208;21.192;2024-02-21T22:15:55;26.50;;;14.00;;
39176;SDS011;24904;52.208;21.192;2024-02-21T22:20:58;23.40;;;13.40;;
39176;SDS011;24904;52.208;21.192;2024-02-21T22:26:01;26.10;;;13.80;;
39176;SDS011;24904;52.208;21.192;2024-02-21T22:31:04;31.30;;;14.10;;
39176;SDS011;24904;52.208;21.192;2024-02-21T22:36:09;24.90;;;12.50;;
39176;SDS011;24904;52.208;21.192;2024-02-21T22:41:12;23.70;;;13.20;;
39176;SDS011;24904;52.208;21.192;2024-02-21T22:46:15;29.50;;;13.80;;
39176;SDS011;24904;52.208;21.192;2024-02-21T22:51:18;29.00;;;14.30;;
39176;SDS011;24904;52.208;21.192;2024-02-21T22:56:21;24.00;;;12.90;;
39176;SDS011;24904;52.208;21.192;2024-02-21T23:01:24;25.50;;;13.50;;
39176;SDS011;24904;52.208;21.192;2024-02-21T23:06:28;25.60;;;14.00;;
39176;SDS011;24904;52.208;21.192;2024-02-21T23:11:31;23.00;;;14.20;;
39176;SDS011;24904;52.208;21.192;2024-02-21T23:16:35;28.40;;;14.40;;
39176;SDS011;24904;52.208;21.192;2024-02-21T23:21:42;21.50;;;13.00;;
39176;SDS011;24904;52.208;21.192;2024-02-21T23:26:45;26.50;;;13.90;;
39176;SDS011;24904;52.208;21.192;2024-02-21T23:31:49;30.30;;;14.60;;
39176;SDS011;24904;52.208;21.192;2024-02-21T23:36:52;28.00;;;13.70;;
39176;SDS011;24904;52.208;21.192;2024-02-21T23:41:55;27.10;;;12.90;;
39176;SDS011;24904;52.208;21.192;2024-02-21T23:47:01;28.30;;;13.40;;
39176;SDS011;24904;52.208;21.192;2024-02-21T23:52:05;20.70;;;12.60;;
39176;SDS011;24904;52.208;21.192;2024-02-21T23:57:08;23.50;;;12.50;;
